Time;durP1;ratioP1;P1;durP2;ratioP2;P2;SDS_P1;SDS_P2;PMS_P1;PMS_P2;Temp;Humidity;BMP_temperature;BMP_pressure;BME280_temperature;BME280_humidity;BME280_pressure;Samples;Min_cycle;Max_cycle;Signal;HPM_P1;HPM_P2
2022/05/25 00:01:48;;;;;;;21.20;10.70;;;;;;;8.33;71.85;99495.02;109174;1277;22457;-63
2022/05/25 00:04:15;;;;;;;20.40;10.00;;;;;;;8.32;71.79;99496.27;109122;1277;138499;-63
2022/05/25 00:06:42;;;;;;;19.40;10.10;;;;;;;8.31;71.89;99496.62;109235;1277;22412;-63
2022/05/25 00:09:09;;;;;;;17.70;9.40;;;;;;;8.31;71.96;99495.88;109152;1277;138778;-63
2022/05/25 00:11:36;;;;;;;14.90;9.40;;;;;;;8.34;72.03;99496.34;109243;1277;22449;-63
2022/05/25 00:14:03;;;;;;;17.40;9.90;;;;;;;8.33;72.06;99492.35;109296;1276;22494;-63
2022/05/25 00:16:30;;;;;;;16.70;9.50;;;;;;;8.32;71.93;99492.49;108974;1277;137964;-63
2022/05/25 00:21:42;;;;;;;17.80;9.20;;;;;;;8.29;71.89;99504.56;108946;1277;139183;-63
2022/05/25 00:24:09;;;;;;;12.70;8.70;;;;;;;8.27;72.02;99502.94;109081;1277;22570;-63
2022/05/25 00:26:36;;;;;;;16.00;9.30;;;;;;;8.26;72.18;99505.70;109020;1278;23554;-63
2022/05/25 00:29:03;;;;;;;14.00;9.00;;;;;;;8.28;71.93;99507.63;109164;1277;140739;-63
2022/05/25 00:31:30;;;;;;;17.30;9.80;;;;;;;8.26;71.84;99505.95;109227;1276;22494;-64
2022/05/25 00:33:58;;;;;;;16.40;9.90;;;;;;;8.22;71.77;99507.42;109029;1277;137811;-63
2022/05/25 00:36:25;;;;;;;17.60;8.60;;;;;;;8.18;71.67;99505.23;109238;1277;22457;-63
2022/05/25 00:38:51;;;;;;;;;;;;;;;8.15;71.95;99504.91;109208;1277;22566;-63
2022/05/25 00:41:22;;;;;;;13.90;8.30;;;;;;;8.11;72.03;99502.38;109146;1276;124071;-63
2022/05/25 00:43:49;;;;;;;15.50;7.80;;;;;;;8.08;72.17;99500.31;109206;1277;22458;-63
2022/05/25 00:46:16;;;;;;;13.10;7.80;;;;;;;8.06;72.06;99501.11;109125;1277;138718;-63
2022/05/25 00:48:45;;;;;;;17.10;9.00;;;;;;;8.05;72.35;99501.58;109093;1277;22550;-63
2022/05/25 00:51:13;;;;;;;13.70;8.70;;;;;;;8.05;72.21;99500.42;109070;1277;140801;-63
2022/05/25 00:53:46;;;;;;;11.30;8.20;;;;;;;8.04;72.35;99504.16;109291;1277;23206;-63
2022/05/25 00:56:15;;;;;;;20.00;9.10;;;;;;;8.03;72.55;99504.80;109089;1277;22472;-63
2022/05/25 00:58:45;;;;;;;16.30;8.30;;;;;;;8.04;72.45;99509.04;109042;1277;138861;-63
2022/05/25 01:01:11;;;;;;;13.70;8.50;;;;;;;8.08;72.87;99510.58;109176;1277;23262;-63
2022/05/25 01:03:38;;;;;;;;;;;;;;;8.09;72.72;99510.74;109063;1277;139673;-63
2022/05/25 01:06:09;;;;;;;12.70;8.30;;;;;;;8.09;72.77;99517.05;109219;1276;22449;-63
2022/05/25 01:09:03;;;;;;;14.00;8.30;;;;;;;8.13;72.75;99518.77;109238;1277;22507;-63
2022/05/25 01:11:43;;;;;;;14.10;8.00;;;;;;;8.19;73.04;99516.64;109057;1277;138504;-63
2022/05/25 01:14:33;;;;;;;13.90;8.50;;;;;;;8.25;72.66;99520.92;109270;1277;23262;-64
2022/05/25 01:17:06;;;;;;;17.50;9.90;;;;;;;8.32;72.33;99521.00;108910;1277;139998;-63
2022/05/25 01:19:55;;;;;;;13.50;8.30;;;;;;;8.38;72.01;99525.16;109147;1277;22472;-63
2022/05/25 01:22:31;;;;;;;15.50;8.90;;;;;;;8.44;71.69;99526.16;109137;1277;138498;-63
2022/05/25 01:25:25;;;;;;;18.40;9.80;;;;;;;8.51;71.65;99526.99;109207;1277;22459;-63
2022/05/25 01:27:52;;;;;;;18.20;9.20;;;;;;;8.59;71.53;99520.02;109146;1277;139589;-63
2022/05/25 01:30:20;;;;;;;13.40;8.10;;;;;;;8.63;71.10;99515.91;109212;1277;22660;-63
2022/05/25 01:32:46;;;;;;;16.60;9.40;;;;;;;8.66;71.06;99517.58;109175;1277;23239;-63
2022/05/25 01:35:35;;;;;;;12.90;8.30;;;;;;;8.69;71.05;99521.52;109094;1277;138016;-63
2022/05/25 01:38:08;;;;;;;12.20;8.10;;;;;;;8.71;70.87;99529.58;109129;1277;22536;-63
2022/05/25 01:41:17;;;;;;;14.80;8.50;;;;;;;8.75;70.63;99531.05;109067;1277;137430;-63
2022/05/25 01:43:47;;;;;;;11.30;8.10;;;;;;;8.75;70.67;99533.79;108991;1278;22247;-63
2022/05/25 01:46:20;;;;;;;13.50;8.70;;;;;;;8.76;70.43;99532.60;109052;1277;137287;-63
2022/05/25 01:48:47;;;;;;;15.20;8.10;;;;;;;8.72;70.10;99529.75;109021;1277;23442;-63
2022/05/25 01:51:16;;;;;;;;;;;;;;;8.68;69.92;99532.38;109174;1277;138773;-62
2022/05/25 01:53:45;;;;;;;11.10;6.90;;;;;;;8.64;69.97;99530.65;109196;1277;22389;-63
2022/05/25 01:56:13;;;;;;;12.70;7.40;;;;;;;8.62;69.43;99533.23;109012;1277;22331;-63
2022/05/25 01:58:41;;;;;;;12.80;7.70;;;;;;;8.66;69.31;99533.49;108897;1277;139260;-63
2022/05/25 02:01:09;;;;;;;10.40;6.60;;;;;;;8.69;69.17;99534.85;108931;1277;22401;-63
2022/05/25 02:06:53;;;;;;;11.50;6.90;;;;;;;8.63;68.96;99544.16;109165;1277;22426;-63
2022/05/25 02:09:39;;;;;;;11.10;6.70;;;;;;;8.64;68.79;99544.02;109109;1276;139866;-63
2022/05/25 02:12:33;;;;;;;12.20;7.10;;;;;;;8.65;69.08;99546.09;109188;1276;22444;-63
2022/05/25 02:15:11;;;;;;;10.90;6.50;;;;;;;8.59;69.32;99547.29;109190;1277;22537;-63
2022/05/25 02:18:07;;;;;;;9.40;6.50;;;;;;;8.55;69.69;99547.56;108867;1277;138936;-63
2022/05/25 02:20:51;;;;;;;13.10;6.70;;;;;;;8.46;69.80;99541.13;108992;1278;23684;-63
2022/05/25 02:23:43;;;;;;;9.70;6.60;;;;;;;8.45;70.06;99546.23;108892;1277;138143;-63
2022/05/25 02:26:22;;;;;;;11.50;6.30;;;;;;;8.45;69.79;99549.20;109028;1277;22456;-63
2022/05/25 02:29:28;;;;;;;11.70;6.30;;;;;;;8.45;69.96;99555.17;109037;1277;138986;-63
2022/05/25 02:32:08;;;;;;;10.70;6.40;;;;;;;8.46;69.97;99560.46;109202;1277;22471;-63
2022/05/25 02:34:35;;;;;;;11.90;6.70;;;;;;;8.46;69.56;99560.67;108910;1277;140555;-63
2022/05/25 02:37:02;;;;;;;;;;;;;;;8.47;69.64;99558.11;108889;1277;22538;-63
2022/05/25 02:39:29;;;;;;;8.30;5.80;;;;;;;8.48;69.92;99555.62;108940;1277;124771;-63
2022/05/25 02:41:55;;;;;;;;;;;;;;;8.45;69.94;99558.39;109086;1277;22492;-64
2022/05/25 02:44:22;;;;;;;9.00;5.50;;;;;;;8.42;70.34;99561.79;109117;1277;22413;-63
2022/05/25 02:46:50;;;;;;;11.80;6.70;;;;;;;8.39;70.70;99563.79;109105;1276;138767;-64
2022/05/25 02:49:17;;;;;;;11.00;6.30;;;;;;;8.42;70.67;99566.06;109245;1277;22496;-64
2022/05/25 02:51:44;;;;;;;9.30;6.70;;;;;;;8.44;70.90;99565.31;109091;1277;139591;-63
2022/05/25 02:54:10;;;;;;;14.40;6.40;;;;;;;8.51;71.06;99569.95;108979;1278;23588;-63
2022/05/25 02:56:38;;;;;;;;;;;;;;;8.55;71.38;99573.54;109011;1277;23279;-63
2022/05/25 02:59:05;;;;;;;10.20;6.50;;;;;;;8.58;71.54;99572.59;108962;1277;124360;-63
2022/05/25 03:01:32;;;;;;;;;;;;;;;8.63;71.99;99577.17;109175;1277;22465;-63
2022/05/25 03:03:58;;;;;;;15.20;6.40;;;;;;;8.68;71.98;99571.98;109123;1277;125047;-64
2022/05/25 03:06:25;;;;;;;11.00;6.40;;;;;;;8.73;71.91;99572.24;109028;1277;22319;-64
2022/05/25 03:08:52;;;;;;;;;;;;;;;8.78;71.93;99571.42;108986;1278;22594;-63
2022/05/25 03:11:19;;;;;;;14.20;6.70;;;;;;;8.84;71.90;99570.81;109073;1277;125257;-64
2022/05/25 03:13:48;;;;;;;;;;;;;;;8.90;71.81;99568.38;108943;1279;22467;-64
2022/05/25 03:16:16;;;;;;;10.40;5.60;;;;;;;8.97;71.90;99568.03;109023;1277;126632;-63
2022/05/25 03:18:43;;;;;;;13.90;6.30;;;;;;;9.03;71.91;99567.94;109153;1277;22408;-64
2022/05/25 03:21:10;;;;;;;;;;;;;;;9.10;71.76;99570.42;109018;1277;22469;-63
2022/05/25 03:23:37;;;;;;;11.30;5.90;;;;;;;9.19;71.70;99575.41;108880;1278;125448;-63
2022/05/25 03:26:04;;;;;;;;;;;;;;;9.28;71.58;99574.08;109177;1276;22487;-64
2022/05/25 03:28:30;;;;;;;10.10;5.60;;;;;;;9.39;71.09;99580.89;108901;1277;124451;-64
2022/05/25 03:30:57;;;;;;;14.10;5.90;;;;;;;9.51;70.69;99578.69;109188;1277;23129;-64
2022/05/25 03:33:24;;;;;;;10.90;6.00;;;;;;;9.64;70.30;99579.79;108823;1277;138503;-63
2022/05/25 03:35:51;;;;;;;10.00;5.40;;;;;;;9.77;69.95;99576.70;109027;1275;22244;-64
2022/05/25 03:38:18;;;;;;;;;;;;;;;9.89;69.61;99574.31;109057;1277;22539;-64
2022/05/25 03:40:45;;;;;;;8.70;6.00;;;;;;;10.00;69.37;99571.90;108900;1278;124718;-64
2022/05/25 03:43:12;;;;;;;14.70;6.70;;;;;;;10.12;69.20;99571.39;108936;1278;22477;-64
2022/05/25 03:45:39;;;;;;;12.70;7.20;;;;;;;10.23;69.09;99572.48;108635;1278;138219;-64
2022/05/25 03:48:07;;;;;;;18.00;7.50;;;;;;;10.35;69.44;99574.64;108931;1278;23006;-64
2022/05/25 03:50:35;;;;;;;14.30;6.70;;;;;;;10.47;69.20;99571.83;108948;1278;22469;-63
2022/05/25 03:53:02;;;;;;;15.10;7.40;;;;;;;10.58;68.64;99570.25;109050;1277;137534;-64
2022/05/25 03:55:29;;;;;;;12.50;7.40;;;;;;;10.70;67.75;99571.02;109270;1277;22459;-64
2022/05/25 03:57:55;;;;;;;;;;;;;;;10.81;67.75;99572.61;109141;1277;139191;-64
2022/05/25 04:00:22;;;;;;;9.50;5.50;;;;;;;10.91;67.88;99574.34;109141;1277;22431;-64
2022/05/25 04:02:49;;;;;;;;;;;;;;;11.02;67.11;99579.50;109221;1277;22479;-64
2022/05/25 04:05:16;;;;;;;8.20;4.50;;;;;;;11.13;66.51;99580.80;108952;1277;124071;-64
2022/05/25 04:07:44;;;;;;;;;;;;;;;11.23;66.15;99583.49;104858;1277;24004;-63
2022/05/25 04:10:13;;;;;;;;;;;;;;;11.36;65.38;99592.66;109087;1277;124084;-64
2022/05/25 04:12:40;;;;;;;6.60;3.80;;;;;;;11.46;64.86;99592.56;109250;1277;22879;-64
2022/05/25 04:15:08;;;;;;;12.20;5.00;;;;;;;11.57;64.23;99596.57;109164;1277;22500;-64
2022/05/25 04:17:35;;;;;;;8.80;5.00;;;;;;;11.69;63.68;99600.73;109163;1277;138624;-64
2022/05/25 04:20:03;;;;;;;11.50;6.50;;;;;;;11.78;62.78;99600.84;109250;1276;22455;-64
2022/05/25 04:22:32;;;;;;;13.00;6.80;;;;;;;11.94;62.23;99606.87;109054;1277;138217;-64
2022/05/25 04:24:59;;;;;;;8.60;5.60;;;;;;;12.06;61.49;99608.25;109269;1277;22591;-64
2022/05/25 04:27:26;;;;;;;12.20;6.30;;;;;;;12.17;61.29;99607.75;109117;1277;138020;-65
2022/05/25 04:29:53;;;;;;;10.60;5.30;;;;;;;12.28;60.51;99608.94;109258;1277;22442;-64
2022/05/25 04:32:20;;;;;;;10.80;4.90;;;;;;;12.39;59.55;99612.60;109234;1277;23178;-64
2022/05/25 04:34:46;;;;;;;;;;;;;;;12.51;58.78;99613.84;109151;1277;138034;-64
2022/05/25 04:39:58;;;;;;;6.70;3.80;;;;;;;12.80;56.52;99608.63;109100;1277;137474;-64
2022/05/25 04:42:29;;;;;;;5.90;3.50;;;;;;;12.97;54.47;99605.69;109189;1277;22508;-64
2022/05/25 04:45:03;;;;;;;7.60;3.00;;;;;;;13.14;53.65;99602.23;109245;1276;22626;-65
2022/05/25 04:47:48;;;;;;;4.00;2.60;;;;;;;13.30;53.00;99608.05;109141;1276;138056;-64
2022/05/25 04:50:17;;;;;;;5.60;2.80;;;;;;;13.43;52.11;99605.15;109232;1277;22591;-64
2022/05/25 04:52:44;;;;;;;6.40;3.10;;;;;;;13.55;51.51;99606.39;109085;1277;137766;-64
2022/05/25 04:57:19;;;;;;;6.50;2.80;;;;;;;13.66;50.91;99610.70;109234;1276;22423;-64
2022/05/25 04:57:58;;;;;;;6.00;2.60;;;;;;;13.80;49.92;99607.34;109096;1277;138278;-64
2022/05/25 05:00:25;;;;;;;4.50;2.80;;;;;;;13.92;49.98;99607.25;109090;1277;22452;-64
2022/05/25 05:02:53;;;;;;;6.00;2.60;;;;;;;14.06;49.23;99604.10;108995;1277;23098;-64
2022/05/25 05:05:20;;;;;;;7.00;2.70;;;;;;;14.22;48.86;99606.67;109108;1276;137763;-64
2022/05/25 05:07:47;;;;;;;4.20;2.50;;;;;;;14.40;48.33;99606.61;109179;1277;22472;-64
2022/05/25 05:10:14;;;;;;;3.60;2.50;;;;;;;14.64;48.15;99608.27;109110;1277;137781;-64
2022/05/25 05:12:41;;;;;;;6.80;2.60;;;;;;;14.96;47.37;99604.29;109220;1276;22471;-64
2022/05/25 05:15:09;;;;;;;4.70;2.50;;;;;;;15.38;46.76;99605.06;109214;1277;22448;-65
2022/05/25 05:17:35;;;;;;;5.50;2.80;;;;;;;15.88;45.76;99609.34;109123;1277;139082;-65
2022/05/25 05:20:14;;;;;;;6.20;2.60;;;;;;;16.46;44.50;99606.14;109246;1276;23385;-65
2022/05/25 05:22:41;;;;;;;5.70;2.60;;;;;;;17.00;43.82;99600.91;109081;1276;137508;-65
2022/05/25 05:25:08;;;;;;;5.90;3.30;;;;;;;17.52;42.81;99600.80;109217;1277;22481;-65
2022/05/25 05:27:35;;;;;;;4.00;2.60;;;;;;;18.02;41.78;99599.14;109088;1277;137589;-65
2022/05/25 05:30:04;;;;;;;4.50;2.80;;;;;;;18.50;40.23;99602.36;109200;1277;22539;-65
2022/05/25 05:32:31;;;;;;;4.30;2.30;;;;;;;18.93;39.93;99601.16;109002;1277;22474;-65
2022/05/25 05:34:58;;;;;;;3.00;2.70;;;;;;;19.37;38.73;99599.13;109100;1277;138411;-65
2022/05/25 05:37:29;;;;;;;3.70;2.50;;;;;;;19.79;38.40;99600.23;109176;1277;22471;-65
2022/05/25 05:39:56;;;;;;;6.50;3.10;;;;;;;20.21;37.85;99602.05;109089;1277;137622;-65
2022/05/25 05:42:22;;;;;;;9.70;3.30;;;;;;;20.60;36.94;99601.00;109162;1277;22389;-65
2022/05/25 05:45:01;;;;;;;4.80;3.10;;;;;;;20.99;36.30;99598.23;109146;1276;22818;-65
2022/05/25 05:47:32;;;;;;;4.80;2.50;;;;;;;21.36;34.99;99599.64;109136;1276;138066;-65
2022/05/25 05:49:59;;;;;;;4.30;2.80;;;;;;;21.63;34.55;99592.14;109154;1277;22406;-65
2022/05/25 05:52:27;;;;;;;9.90;2.60;;;;;;;21.85;33.61;99593.03;108937;1277;137897;-65
2022/05/25 05:54:54;;;;;;;4.90;2.40;;;;;;;22.01;33.14;99590.61;109258;1276;22414;-65
2022/05/25 05:57:21;;;;;;;6.30;2.70;;;;;;;22.12;32.96;99597.14;109075;1276;138160;-65
2022/05/25 05:59:47;;;;;;;4.60;2.70;;;;;;;22.18;32.51;99593.16;109167;1277;22441;-65
2022/05/25 06:02:15;;;;;;;3.60;2.50;;;;;;;22.18;31.98;99598.03;109303;1277;23193;-65
2022/05/25 06:04:42;;;;;;;4.60;2.60;;;;;;;22.14;31.86;99594.09;109106;1276;137721;-65
2022/05/25 06:07:09;;;;;;;4.80;2.40;;;;;;;22.01;31.52;99594.33;109181;1277;23205;-65
2022/05/25 06:09:35;;;;;;;3.40;2.50;;;;;;;21.79;31.51;99597.96;109109;1276;137548;-65
2022/05/25 06:12:03;;;;;;;5.30;2.60;;;;;;;21.59;31.94;99599.21;109181;1277;22527;-65
2022/05/25 06:14:30;;;;;;;5.40;2.60;;;;;;;21.46;32.34;99605.20;109228;1276;22367;-65
2022/05/25 06:19:42;;;;;;;6.90;2.80;;;;;;;21.27;32.38;99601.27;105041;1277;25268;-65
2022/05/25 06:22:12;;;;;;;5.20;2.20;;;;;;;21.15;32.77;99603.48;105009;1277;137620;-65
2022/05/25 06:24:41;;;;;;;5.20;2.90;;;;;;;21.03;32.63;99603.73;104932;1275;24186;-65
2022/05/25 06:27:08;;;;;;;3.70;2.20;;;;;;;20.90;31.90;99606.25;104819;1277;25269;-65
2022/05/25 06:29:37;;;;;;;3.30;2.50;;;;;;;20.69;32.31;99608.94;108854;1277;137314;-66
2022/05/25 06:32:05;;;;;;;3.20;2.40;;;;;;;20.54;32.95;99609.77;109200;1277;22502;-64
2022/05/25 06:34:32;;;;;;;3.90;2.60;;;;;;;20.44;32.81;99604.38;109150;1277;138020;-66
2022/05/25 06:36:58;;;;;;;4.20;2.60;;;;;;;20.34;33.04;99611.33;109243;1277;22477;-64
2022/05/25 06:39:26;;;;;;;9.10;2.80;;;;;;;20.28;33.31;99615.91;109083;1277;138515;-63
2022/05/25 06:41:53;;;;;;;4.50;2.90;;;;;;;20.22;32.53;99616.79;109217;1277;22337;-64
2022/05/25 06:44:20;;;;;;;3.00;2.70;;;;;;;20.14;32.10;99613.33;109255;1276;22458;-65
2022/05/25 06:46:47;;;;;;;3.10;2.20;;;;;;;20.03;32.40;99612.92;109137;1277;137497;-65
2022/05/25 06:49:14;;;;;;;3.70;2.50;;;;;;;19.92;32.40;99619.14;109232;1276;22470;-65
2022/05/25 06:51:41;;;;;;;4.20;2.60;;;;;;;19.80;33.35;99617.60;109156;1277;139715;-65
2022/05/25 06:54:08;;;;;;;2.90;2.30;;;;;;;19.74;33.63;99616.21;109163;1276;22261;-64
2022/05/25 06:56:35;;;;;;;5.00;2.50;;;;;;;19.69;33.91;99608.73;109182;1276;22405;-65
2022/05/25 06:59:02;;;;;;;7.20;3.00;;;;;;;19.71;33.49;99614.82;109031;1277;138145;-64
2022/05/25 07:01:29;;;;;;;5.30;2.90;;;;;;;19.68;33.61;99616.92;109038;1277;23548;-64
2022/05/25 07:03:55;;;;;;;6.70;2.60;;;;;;;19.67;33.87;99621.88;108973;1275;137351;-64
2022/05/25 07:06:23;;;;;;;7.40;2.50;;;;;;;19.65;32.78;99620.83;109121;1277;23220;-64
2022/05/25 07:08:50;;;;;;;2.60;2.10;;;;;;;19.60;33.12;99617.33;109172;1277;22470;-65
2022/05/25 07:11:17;;;;;;;4.70;2.90;;;;;;;19.59;33.13;99615.73;109088;1276;137501;-65
2022/05/25 07:13:44;;;;;;;4.10;1.80;;;;;;;19.59;32.97;99618.10;109304;1277;23043;-65
2022/05/25 07:16:13;;;;;;;7.30;2.30;;;;;;;19.61;33.54;99617.11;109103;1276;137410;-65
2022/05/25 07:18:40;;;;;;;6.40;1.90;;;;;;;19.68;34.02;99618.25;109218;1276;23281;-65
2022/05/25 07:21:10;;;;;;;2.70;1.70;;;;;;;19.77;33.28;99617.42;109220;1277;22970;-65
2022/05/25 07:23:38;;;;;;;8.00;2.10;;;;;;;19.84;33.31;99620.73;109079;1277;137791;-65
2022/05/25 07:26:06;;;;;;;6.90;2.30;;;;;;;19.90;33.02;99621.66;107524;1276;22571;-64
2022/05/25 07:28:34;;;;;;;2.80;1.80;;;;;;;19.96;33.26;99622.67;109094;1276;137500;-65
2022/05/25 07:31:07;;;;;;;8.60;2.40;;;;;;;20.03;33.08;99616.08;109231;1277;22515;-65
2022/05/25 07:33:34;;;;;;;3.40;1.90;;;;;;;20.10;33.06;99614.86;109033;1277;137509;-65
2022/05/25 07:36:02;;;;;;;1.60;1.50;;;;;;;20.18;32.64;99617.05;109112;1277;23438;-65
2022/05/25 07:38:29;;;;;;;4.90;1.90;;;;;;;20.23;32.40;99623.17;109033;1277;22431;-65
2022/05/25 07:40:56;;;;;;;3.30;1.90;;;;;;;20.28;32.79;99622.23;109117;1277;138071;-65
2022/05/25 07:43:22;;;;;;;9.80;2.30;;;;;;;20.32;32.95;99619.59;109214;1274;22494;-65
2022/05/25 07:45:49;;;;;;;6.90;2.00;;;;;;;20.35;33.06;99620.15;109089;1277;138024;-65
2022/05/25 07:48:16;;;;;;;5.10;1.80;;;;;;;20.38;32.79;99618.35;109206;1276;22402;-65
2022/05/25 07:50:43;;;;;;;2.80;2.20;;;;;;;20.41;32.58;99616.97;109263;1276;23122;-65
2022/05/25 07:55:59;;;;;;;;;;;;;;;20.39;30.92;99621.05;109259;1277;23345;-65
2022/05/25 07:58:26;;;;;;;2.00;1.70;;;;;;;20.34;31.77;99613.60;109141;1276;125677;-65
2022/05/25 08:00:54;;;;;;;5.50;2.90;;;;;;;20.34;31.52;99622.69;109231;1277;22445;-65
2022/05/25 08:06:06;;;;;;;2.10;1.80;;;;;;;20.31;31.16;99621.20;109243;1275;22467;-64
2022/05/25 08:08:33;;;;;;;3.30;2.00;;;;;;;20.30;31.36;99620.75;109125;1277;22517;-65
2022/05/25 08:11:10;;;;;;;5.50;2.20;;;;;;;20.28;31.57;99615.44;108901;1277;137428;-65
2022/05/25 08:13:39;;;;;;;2.60;1.90;;;;;;;20.30;31.84;99617.30;109192;1277;23506;-65
2022/05/25 08:16:08;;;;;;;14.50;2.90;;;;;;;20.32;32.36;99618.58;109050;1277;137482;-65
2022/05/25 08:18:35;;;;;;;2.50;2.20;;;;;;;20.35;33.32;99620.80;109016;1277;23436;-65
2022/05/25 08:21:03;;;;;;;3.10;1.90;;;;;;;20.39;33.05;99620.21;109023;1277;22453;-65
2022/05/25 08:23:30;;;;;;;4.10;1.90;;;;;;;20.43;33.21;99620.23;109083;1275;137212;-65
2022/05/25 08:25:57;;;;;;;2.20;1.70;;;;;;;20.44;33.18;99621.73;107755;1277;22551;-64
2022/05/25 08:28:24;;;;;;;5.30;2.00;;;;;;;20.45;33.17;99621.72;104605;1277;137642;-64
2022/05/25 08:30:51;;;;;;;4.10;2.20;;;;;;;20.47;33.90;99621.16;104744;1277;22775;-64
2022/05/25 08:33:20;;;;;;;3.80;1.60;;;;;;;20.49;33.34;99623.08;104660;1277;137728;-64
2022/05/25 08:35:48;;;;;;;3.10;1.90;;;;;;;20.52;33.79;99627.15;104978;1277;22590;-64
2022/05/25 08:38:15;;;;;;;2.60;2.30;;;;;;;20.55;33.10;99620.27;104816;1277;22593;-64
2022/05/25 08:53:00;;;;;;;3.00;2.00;;;;;;;20.98;33.01;99606.81;101363;1312;558099;-65
2022/05/25 08:55:45;;;;;;;4.00;2.10;;;;;;;21.09;33.07;99604.02;103443;1292;215554;-65
2022/05/25 08:58:12;;;;;;;3.10;1.90;;;;;;;21.10;33.29;99603.33;103489;1290;138244;-66
2022/05/25 09:00:40;;;;;;;3.30;2.20;;;;;;;21.11;33.09;99606.02;103434;1291;24145;-65
2022/05/25 09:03:38;;;;;;;2.10;2.00;;;;;;;21.12;32.98;99608.32;103482;1290;137053;-65
2022/05/25 09:06:28;;;;;;;3.00;2.50;;;;;;;21.13;32.70;99608.08;102815;1295;22625;-65
2022/05/25 09:09:05;;;;;;;3.80;2.60;;;;;;;21.13;33.04;99605.23;102983;1297;24458;-65
2022/05/25 09:11:54;;;;;;;4.60;2.10;;;;;;;21.13;32.53;99605.95;107116;1295;138452;-66
2022/05/25 09:14:31;;;;;;;4.30;2.50;;;;;;;21.13;33.01;99599.30;107115;1296;22468;-66
2022/05/25 09:16:59;;;;;;;;;;;;;;;21.15;32.71;99600.34;104678;1287;138052;-66
2022/05/25 09:19:29;;;;;;;11.30;2.50;;;;;;;21.17;32.73;99595.59;108069;1287;22438;-66
2022/05/25 09:21:58;;;;;;;3.60;2.00;;;;;;;21.18;31.76;99587.14;107842;1287;137893;-66
2022/05/25 09:24:26;;;;;;;3.40;2.40;;;;;;;21.20;31.87;99592.52;108126;1287;22479;-66
2022/05/25 09:26:53;;;;;;;5.50;2.30;;;;;;;21.21;31.59;99590.09;107919;1287;23722;-67
2022/05/25 09:29:21;;;;;;;7.90;2.50;;;;;;;21.24;31.83;99589.96;107909;1287;137433;-66
2022/05/25 09:31:55;;;;;;;2.20;2.00;;;;;;;21.28;32.34;99586.21;107964;1287;22503;-64
2022/05/25 09:34:44;;;;;;;7.60;2.10;;;;;;;21.36;31.85;99582.06;107844;1287;138960;-64
2022/05/25 09:37:49;;;;;;;5.70;2.20;;;;;;;21.41;31.07;99579.58;108086;1287;22637;-66
2022/05/25 09:40:30;;;;;;;3.90;2.50;;;;;;;21.40;30.79;99567.45;108109;1285;137326;-66
2022/05/25 09:42:57;;;;;;;4.10;1.90;;;;;;;21.40;31.57;99562.04;108427;1281;23555;-64
2022/05/25 09:45:29;;;;;;;2.60;1.80;;;;;;;21.41;31.29;99565.10;108412;1282;137929;-63
2022/05/25 09:47:56;;;;;;;10.80;3.10;;;;;;;21.45;31.39;99570.59;108628;1283;22412;-66
2022/05/25 09:50:33;;;;;;;3.10;2.00;;;;;;;21.47;31.33;99568.02;108640;1283;22530;-66
2022/05/25 09:53:02;;;;;;;3.00;2.20;;;;;;;21.52;31.64;99567.79;108542;1283;136960;-66
2022/05/25 09:55:33;;;;;;;2.90;1.90;;;;;;;21.59;31.66;99566.99;108662;1283;22644;-66
2022/05/25 09:58:03;;;;;;;4.20;2.30;;;;;;;21.69;30.85;99569.08;108387;1283;138316;-66
2022/05/25 10:00:33;;;;;;;4.50;2.10;;;;;;;21.77;30.46;99566.66;108221;1283;22490;-66
2022/05/25 10:03:02;;;;;;;3.00;2.10;;;;;;;21.83;30.71;99565.80;108521;1284;22427;-66
2022/05/25 10:05:34;;;;;;;3.90;2.10;;;;;;;21.91;30.96;99558.61;108290;1284;137142;-66
2022/05/25 10:08:15;;;;;;;2.40;1.60;;;;;;;21.97;30.41;99561.33;108618;1284;22500;-66
2022/05/25 10:10:56;;;;;;;6.10;2.40;;;;;;;22.02;30.63;99566.16;108552;1283;138315;-66
2022/05/25 10:13:25;;;;;;;2.30;2.10;;;;;;;22.09;30.77;99562.84;108641;1282;23199;-66
2022/05/25 10:15:52;;;;;;;4.80;1.80;;;;;;;22.16;30.50;99559.32;108476;1284;137684;-66
2022/05/25 10:18:36;;;;;;;3.20;2.00;;;;;;;22.21;30.34;99557.63;108656;1283;22467;-66
2022/05/25 10:21:04;;;;;;;6.10;2.30;;;;;;;22.26;30.07;99562.33;108632;1283;23501;-65
2022/05/25 10:23:31;;;;;;;3.10;1.90;;;;;;;22.29;30.41;99560.61;108476;1283;138759;-65
2022/05/25 10:26:07;;;;;;;5.20;2.20;;;;;;;22.32;30.58;99559.14;108714;1281;22416;-65
2022/05/25 10:28:35;;;;;;;3.80;2.10;;;;;;;22.33;29.86;99556.43;108450;1283;138105;-65
2022/05/25 10:37:08;;;;;;;7.80;2.20;;;;;;;22.27;28.64;99535.15;107661;1289;22684;-64
2022/05/25 10:39:44;;;;;;;4.20;2.20;;;;;;;22.20;28.76;99536.90;107734;1289;137329;-65
2022/05/25 10:42:29;;;;;;;3.40;1.60;;;;;;;22.17;29.45;99536.69;107599;1290;22427;-65
2022/05/25 10:45:18;;;;;;;5.60;2.50;;;;;;;22.18;29.87;99533.09;107848;1289;22502;-65
2022/05/25 10:47:51;;;;;;;11.80;2.50;;;;;;;22.24;30.04;99527.17;107830;1288;154415;-65
2022/05/25 10:50:27;;;;;;;5.60;2.30;;;;;;;22.29;30.31;99531.13;107871;1288;22540;-64
2022/05/25 10:53:12;;;;;;;3.50;2.20;;;;;;;22.33;29.91;99524.39;108042;1285;139653;-65
2022/05/25 10:56:08;;;;;;;4.90;2.80;;;;;;;22.35;29.97;99524.05;108268;1285;22478;-65
2022/05/25 10:58:48;;;;;;;4.40;2.70;;;;;;;22.39;29.57;99528.88;107403;1290;137270;-64
2022/05/25 11:01:33;;;;;;;7.30;3.10;;;;;;;22.39;29.25;99529.81;107521;1290;22569;-64
2022/05/25 11:04:21;;;;;;;2.90;2.20;;;;;;;22.37;29.05;99526.67;107690;1289;138188;-65
2022/05/25 11:06:54;;;;;;;5.50;2.10;;;;;;;22.34;28.80;99532.91;107541;1291;22484;-64
2022/05/25 11:09:33;;;;;;;6.30;3.00;;;;;;;22.31;29.00;99533.27;107588;1290;137942;-64
2022/05/25 11:12:58;;;;;;;5.60;3.10;;;;;;;22.29;29.21;99530.90;107893;1285;22397;-64
2022/05/25 11:15:27;;;;;;;2.70;2.20;;;;;;;22.29;30.07;99527.31;107422;1291;138492;-65
2022/05/25 11:18:19;;;;;;;4.20;2.00;;;;;;;22.30;29.78;99528.39;107557;1291;22448;-65
2022/05/25 11:21:20;;;;;;;4.00;2.10;;;;;;;22.31;29.37;99520.90;107569;1290;22492;-65
2022/05/25 11:23:47;;;;;;;2.90;1.80;;;;;;;22.33;29.11;99518.21;107069;1294;137058;-65
2022/05/25 11:26:37;;;;;;;3.40;2.10;;;;;;;22.37;29.64;99523.11;107134;1297;22467;-65
2022/05/25 11:29:08;;;;;;;3.10;2.10;;;;;;;22.44;29.52;99525.61;107025;1297;137497;-65
2022/05/25 11:32:03;;;;;;;2.20;1.70;;;;;;;22.49;28.75;99521.30;107087;1296;22307;-65
2022/05/25 11:34:45;;;;;;;2.90;1.80;;;;;;;22.52;27.80;99512.65;107079;1295;139029;-65
2022/05/25 11:37:50;;;;;;;2.30;2.00;;;;;;;22.50;28.42;99514.73;107349;1291;22468;-65
2022/05/25 11:40:35;;;;;;;2.60;1.90;;;;;;;22.50;28.51;99515.94;107351;1292;138642;-65
2022/05/25 11:43:27;;;;;;;4.10;2.30;;;;;;;22.51;28.60;99516.05;107461;1291;22497;-65
2022/05/25 11:46:04;;;;;;;5.00;2.30;;;;;;;22.57;28.67;99515.07;107557;1285;138362;-65
2022/05/25 11:49:18;;;;;;;2.30;1.80;;;;;;;22.61;29.10;99514.76;108198;1287;22444;-65
2022/05/25 11:52:22;;;;;;;2.10;1.90;;;;;;;22.63;29.62;99512.62;108145;1285;138714;-65
2022/05/25 11:55:02;;;;;;;4.60;2.30;;;;;;;22.67;29.43;99508.25;108195;1285;22415;-65
2022/05/25 11:57:50;;;;;;;8.20;2.10;;;;;;;22.70;29.51;99507.20;107958;1285;138017;-64
2022/05/25 12:00:38;;;;;;;3.90;2.80;;;;;;;22.73;29.38;99507.60;108210;1279;22529;-65
2022/05/25 12:03:27;;;;;;;4.60;1.80;;;;;;;22.76;29.17;99499.72;108984;1279;22466;-65
2022/05/25 12:06:19;;;;;;;2.70;2.20;;;;;;;22.76;29.18;99495.06;109003;1277;137078;-65
2022/05/25 12:09:04;;;;;;;3.00;2.60;;;;;;;22.81;28.70;99491.11;108801;1279;22462;-65
2022/05/25 12:11:41;;;;;;;4.50;2.10;;;;;;;22.82;28.34;99488.20;108901;1279;137387;-65
2022/05/25 12:14:20;;;;;;;;;;;;;;;22.81;28.64;99483.04;108823;1279;22427;-65
2022/05/25 12:16:47;;;;;;;4.90;2.00;;;;;;;22.81;28.75;99483.00;108924;1278;123965;-65
2022/05/25 12:19:19;;;;;;;3.90;2.60;;;;;;;22.81;28.53;99477.67;108796;1279;22582;-65
2022/05/25 12:21:54;;;;;;;4.60;2.50;;;;;;;22.82;28.27;99475.58;108695;1279;138373;-65
2022/05/25 12:24:41;;;;;;;2.60;2.00;;;;;;;22.83;28.45;99472.70;108983;1277;22461;-65
2022/05/25 12:27:21;;;;;;;3.10;1.90;;;;;;;22.85;28.14;99474.54;108765;1279;22504;-65